createdAt,value
2019-01-16T20:15:16.763Z,71.86
2019-01-16T20:15:52.194Z,72.63
2019-01-16T20:16:27.738Z,71.86
2019-01-16T20:17:03.007Z,71.11
2019-01-16T20:17:38.229Z,71.58
2019-01-16T20:18:13.510Z,72.44
2019-01-16T20:18:48.662Z,72.25
2019-01-16T20:19:23.931Z,72.06
2019-01-16T20:19:59.237Z,69.59
2019-01-16T20:20:54.620Z,70.15
2019-01-16T20:21:29.944Z,71.58
2019-01-16T20:22:05.466Z,69.87
2019-01-16T20:22:40.760Z,72.34
2019-01-16T20:23:16.074Z,72.53
2019-01-16T20:23:51.375Z,72.25
2019-01-16T20:24:26.565Z,71.01
2019-01-16T20:25:01.890Z,72.25
2019-01-16T20:25:37.247Z,71.11
2019-01-16T20:26:12.788Z,72.91
2019-01-16T20:26:48.220Z,72.25
2019-01-16T20:27:23.809Z,71.39
2019-01-16T20:27:59.223Z,73.10
2019-01-16T20:28:34.489Z,72.63
2019-01-16T20:29:09.708Z,72.81
2019-01-16T20:29:45.164Z,72.44
2019-01-16T20:30:20.270Z,72.06
2019-01-16T20:30:55.576Z,71.67
2019-01-16T20:31:31.346Z,72.53
2019-01-16T20:32:06.677Z,72.15
2019-01-16T20:32:42.486Z,72.25
2019-01-16T20:33:17.820Z,72.06
2019-01-16T20:33:52.992Z,72.44
2019-01-16T20:34:28.296Z,71.96
2019-01-16T20:35:09.650Z,71.67
2019-01-16T20:35:39.186Z,72.63
2019-01-16T20:36:34.423Z,71.58
2019-01-16T20:37:09.678Z,72.44
2019-01-16T20:37:45.189Z,73.48
2019-01-16T20:38:20.576Z,72.63
2019-01-16T20:38:55.548Z,72.15
2019-01-16T20:39:30.647Z,73.19
2019-01-16T20:40:05.864Z,73.19
2019-01-16T20:40:40.981Z,72.63
2019-01-16T20:41:16.435Z,72.25
2019-01-16T20:41:51.635Z,72.81
2019-01-16T20:42:26.943Z,72.53
2019-01-16T20:43:02.343Z,71.48
2019-01-16T20:43:37.548Z,72.91
2019-01-16T20:44:13.024Z,73.67
2019-01-16T20:44:48.638Z,73.67
2019-01-16T20:45:23.946Z,72.25
2019-01-16T20:45:59.348Z,72.53
2019-01-16T20:46:34.870Z,73.19
2019-01-16T20:47:10.474Z,73.67
2019-01-16T20:47:45.610Z,73.19
2019-01-16T20:48:20.683Z,73.19
2019-01-16T20:48:55.972Z,73.67
2019-01-16T20:49:31.389Z,73.29
2019-01-16T20:50:06.796Z,73.38
2019-01-16T20:50:42.224Z,73.00
2019-01-16T20:51:17.406Z,72.44
2019-01-16T20:51:52.978Z,72.44
2019-01-16T20:52:28.200Z,71.39
2019-01-16T20:53:03.517Z,73.10
2019-01-16T20:53:38.939Z,72.91
2019-01-16T20:54:14.028Z,72.91
2019-01-16T20:54:49.246Z,70.25
2019-01-16T20:55:24.636Z,72.53
2019-01-16T20:56:00.055Z,73.19
2019-01-16T20:56:35.552Z,72.06
2019-01-16T20:57:10.924Z,71.39
2019-01-16T20:57:46.237Z,70.44
2019-01-16T20:58:21.642Z,71.58
2019-01-16T20:58:57.150Z,70.82
2019-01-16T20:59:32.559Z,72.44
2019-01-16T21:00:07.688Z,73.10
2019-01-16T21:00:43.183Z,73.19
2019-01-16T21:01:18.707Z,72.25
2019-01-16T21:01:54.013Z,72.06
2019-01-16T21:02:29.376Z,72.06
2019-01-16T21:03:04.804Z,72.44
2019-01-16T21:03:40.091Z,70.25
2019-01-16T21:04:15.306Z,72.44
2019-01-16T21:04:50.475Z,71.96
2019-01-16T21:05:25.993Z,72.72
2019-01-16T21:06:01.479Z,72.53
2019-01-16T21:06:37.000Z,72.44
2019-01-16T21:07:12.288Z,71.96
2019-01-16T21:07:47.586Z,72.44
2019-01-16T21:08:23.005Z,73.67
2019-01-16T21:08:58.670Z,73.19
2019-01-16T21:09:33.925Z,72.63
2019-01-16T21:10:09.183Z,73.19
2019-01-16T21:10:44.880Z,72.34
2019-01-16T21:11:20.590Z,73.00
2019-01-16T21:11:56.274Z,72.25
2019-01-16T21:12:31.519Z,72.44
2019-01-16T21:13:06.889Z,72.34
2019-01-16T21:13:42.293Z,72.06
2019-01-16T21:14:17.526Z,72.44
2019-01-16T21:14:52.630Z,72.53
2019-01-16T21:15:27.963Z,72.34
2019-01-16T21:16:03.272Z,71.77
2019-01-16T21:16:38.692Z,71.67
2019-01-16T21:17:14.237Z,71.86
2019-01-16T21:17:49.514Z,72.72
2019-01-16T21:18:24.759Z,72.63
2019-01-16T21:19:00.038Z,72.25
2019-01-16T21:19:35.485Z,69.96
2019-01-16T21:20:10.566Z,72.44
2019-01-16T21:20:45.921Z,71.01
2019-01-16T21:21:21.161Z,71.48
2019-01-16T21:21:56.427Z,72.34
2019-01-16T21:22:31.664Z,72.15
2019-01-16T21:23:07.059Z,71.30
2019-01-16T21:23:42.430Z,72.06
2019-01-16T21:24:17.733Z,72.44
2019-01-16T21:24:53.143Z,72.25
2019-01-16T21:25:28.342Z,72.44
2019-01-16T21:26:03.535Z,72.06
2019-01-16T21:26:38.659Z,71.11
2019-01-16T21:27:14.006Z,72.63
2019-01-16T21:27:49.600Z,72.63
2019-01-16T21:28:24.999Z,71.39
2019-01-16T21:29:00.398Z,71.67
2019-01-16T21:29:35.922Z,72.44
2019-01-16T21:30:11.213Z,70.06
2019-01-16T21:30:46.441Z,71.48
2019-01-16T21:31:21.854Z,71.67
2019-01-16T21:31:57.270Z,72.34
2019-01-16T21:32:32.366Z,70.73
2019-01-16T21:33:10.501Z,72.25
2019-01-16T21:33:42.962Z,71.39
2019-01-16T21:34:18.387Z,72.63
2019-01-16T21:34:53.620Z,72.63
2019-01-16T21:35:29.029Z,72.44
2019-01-16T21:36:04.420Z,72.15
2019-01-16T21:36:39.980Z,72.63
2019-01-16T21:37:15.546Z,71.77
2019-01-16T21:37:50.725Z,71.67
2019-01-16T21:38:26.062Z,72.63
2019-01-16T21:39:01.357Z,72.25
2019-01-16T21:39:36.681Z,72.44
2019-01-16T21:40:11.917Z,72.81
2019-01-16T21:40:47.234Z,71.58
2019-01-16T21:41:22.543Z,71.96
2019-01-16T21:41:58.043Z,71.67
2019-01-16T21:42:34.692Z,72.25
2019-01-16T21:43:10.406Z,72.15
2019-01-16T21:43:45.734Z,71.77
2019-01-16T21:44:21.128Z,72.44
2019-01-16T21:44:56.368Z,72.25
2019-01-16T21:45:31.706Z,71.58
2019-01-16T21:46:07.027Z,72.25
2019-01-16T21:46:42.305Z,70.06
2019-01-16T21:47:17.851Z,70.15
2019-01-16T21:47:53.367Z,71.20
2019-01-16T21:48:28.721Z,71.30
2019-01-16T21:49:04.017Z,71.58
2019-01-16T21:49:39.522Z,70.73
2019-01-16T21:50:14.937Z,71.58
2019-01-16T21:50:50.171Z,71.86
2019-01-16T21:51:25.472Z,72.25
2019-01-16T21:52:01.020Z,70.73
2019-01-16T21:52:36.354Z,71.96
2019-01-16T21:53:11.775Z,71.39
2019-01-16T21:53:47.278Z,71.77
2019-01-16T21:54:22.693Z,69.78
2019-01-16T21:55:17.992Z,70.44
2019-01-16T21:55:53.479Z,70.35
2019-01-16T21:56:28.729Z,70.63
2019-01-16T21:57:04.237Z,71.39
2019-01-16T21:57:39.468Z,71.39
2019-01-16T21:58:14.813Z,72.06
2019-01-16T21:58:50.343Z,70.73
2019-01-16T21:59:25.868Z,70.82
2019-01-16T22:00:01.064Z,70.35
2019-01-16T22:00:36.489Z,70.73
2019-01-16T22:01:11.760Z,71.30
2019-01-16T22:01:47.163Z,70.15
2019-01-16T22:02:22.492Z,70.15
2019-01-16T22:02:57.765Z,70.82
2019-01-16T22:03:33.135Z,71.20
2019-01-16T22:04:08.538Z,69.49
2019-01-16T22:04:43.964Z,70.15
2019-01-16T22:05:19.268Z,70.44
2019-01-16T22:05:54.386Z,71.20
2019-01-16T22:06:29.699Z,70.35
2019-01-16T22:07:04.851Z,70.82
2019-01-16T22:07:40.451Z,69.96
2019-01-16T22:08:15.958Z,70.73
2019-01-16T22:08:51.239Z,70.15
2019-01-16T22:09:26.650Z,69.87
2019-01-16T22:10:02.030Z,69.02
2019-01-16T22:10:37.431Z,69.30
2019-01-16T22:11:12.887Z,69.49
2019-01-16T22:11:48.298Z,70.35
2019-01-16T22:12:25.656Z,69.78
2019-01-16T22:13:01.050Z,68.92
2019-01-16T22:13:36.397Z,67.97
2019-01-16T22:14:11.775Z,68.26
2019-01-16T22:14:47.313Z,67.02
2019-01-16T22:15:22.501Z,66.64
2019-01-16T22:15:58.119Z,69.02
2019-01-16T22:16:33.298Z,68.16
2019-01-16T22:17:08.899Z,67.21
2019-01-16T22:17:44.218Z,66.27
2019-01-16T22:18:19.508Z,68.16
2019-01-16T22:18:55.219Z,67.40
2019-01-16T22:19:32.310Z,66.83
2019-01-16T22:20:07.820Z,67.69
2019-01-16T22:20:43.816Z,66.83
2019-01-16T22:21:19.036Z,67.31
2019-01-16T22:21:54.832Z,68.26
2019-01-16T22:22:30.073Z,68.64
2019-01-16T22:23:05.355Z,68.07
2019-01-16T22:23:40.787Z,67.79
2019-01-16T22:24:16.193Z,67.59
2019-01-16T22:24:51.375Z,67.40
2019-01-16T22:25:26.688Z,65.60
2019-01-16T22:26:02.172Z,66.08
2019-01-16T22:26:37.494Z,66.27
2019-01-16T22:27:12.925Z,65.69
2019-01-16T22:27:48.326Z,63.42
2019-01-16T22:28:23.762Z,61.33
2019-01-16T22:28:59.036Z,59.62
2019-01-16T22:29:34.310Z,59.52
2019-01-16T22:30:09.734Z,56.96
2019-01-16T22:30:45.159Z,56.10
2019-01-16T22:31:20.848Z,52.78
2019-01-16T22:31:56.365Z,52.40
2019-01-16T22:32:31.659Z,53.07
2019-01-16T22:33:06.969Z,52.69
2019-01-16T22:33:42.283Z,52.87
2019-01-16T22:34:17.693Z,52.69
2019-01-16T22:34:53.069Z,52.97
2019-01-16T22:35:28.510Z,52.22
2019-01-16T22:36:04.245Z,50.41
2019-01-16T22:36:39.754Z,50.22
2019-01-16T22:37:15.026Z,48.99
2019-01-16T22:37:50.443Z,49.27
2019-01-16T22:38:25.967Z,51.45
2019-01-16T22:39:00.945Z,49.84
2019-01-16T22:39:36.288Z,48.03
2019-01-16T22:40:11.480Z,51.64
2019-01-16T22:40:46.705Z,50.41
2019-01-16T22:41:21.842Z,49.18
2019-01-16T22:41:57.060Z,47.75
2019-01-16T22:42:32.384Z,48.13
2019-01-16T22:43:07.892Z,47.94
2019-01-16T22:43:43.321Z,46.61
2019-01-16T22:44:18.506Z,44.81
2019-01-16T22:44:53.814Z,45.28
2019-01-16T22:45:30.405Z,46.90
2019-01-16T22:46:05.600Z,47.18
2019-01-16T22:46:40.985Z,48.03
2019-01-16T22:47:16.417Z,47.09
2019-01-16T22:47:51.901Z,49.18
2019-01-16T22:48:27.322Z,48.61
2019-01-16T22:49:02.527Z,47.94
2019-01-16T22:49:37.766Z,46.51
2019-01-16T22:50:13.056Z,46.14
2019-01-16T22:50:48.359Z,46.33
2019-01-16T22:51:23.781Z,46.33
2019-01-16T22:51:59.371Z,45.64
2019-01-16T22:52:34.624Z,45.66
2019-01-16T22:53:09.698Z,44.71
2019-01-16T22:53:45.214Z,44.14
2019-01-16T22:54:20.595Z,43.46
2019-01-16T22:54:56.198Z,43.01
2019-01-16T22:55:31.399Z,43.01
2019-01-16T22:56:06.823Z,42.41
2019-01-16T22:56:42.122Z,41.77
2019-01-16T22:57:17.669Z,41.46
2019-01-16T22:57:52.926Z,40.82
2019-01-16T22:58:28.309Z,41.58
2019-01-16T22:59:03.863Z,43.19
2019-01-16T22:59:39.067Z,42.24
2019-01-16T23:00:14.595Z,42.05
2019-01-16T23:00:49.903Z,39.78
2019-01-16T23:01:25.330Z,39.21
2019-01-16T23:02:00.744Z,40.99
2019-01-16T23:02:36.094Z,40.72
2019-01-16T23:03:11.385Z,41.39
2019-01-16T23:03:46.825Z,39.68
2019-01-16T23:04:22.245Z,37.59
2019-01-16T23:04:57.391Z,36.55
2019-01-16T23:05:32.690Z,34.65
2019-01-16T23:06:08.023Z,36.17
2019-01-16T23:06:43.352Z,35.03
2019-01-16T23:07:18.665Z,33.70
2019-01-16T23:07:54.069Z,35.31
2019-01-16T23:08:29.384Z,38.35
2019-01-16T23:09:04.690Z,36.36
2019-01-16T23:09:39.993Z,36.07
2019-01-16T23:10:15.378Z,34.36
2019-01-16T23:10:50.694Z,33.42
2019-01-16T23:11:25.904Z,34.08
2019-01-16T23:12:01.061Z,33.32
2019-01-16T23:12:36.450Z,30.46
2019-01-16T23:13:11.886Z,32.75
2019-01-16T23:13:47.272Z,33.40
2019-01-16T23:14:22.893Z,32.94
2019-01-16T23:14:58.066Z,35.01
2019-01-16T23:15:33.482Z,33.42
2019-01-16T23:16:09.186Z,31.50
2019-01-16T23:16:44.547Z,28.47
2019-01-16T23:17:19.850Z,30.76
2019-01-16T23:17:55.085Z,28.75
2019-01-16T23:18:30.413Z,27.62
2019-01-16T23:19:05.925Z,27.34
2019-01-16T23:19:41.418Z,26.38
2019-01-16T23:20:16.748Z,26.66
2019-01-16T23:20:52.043Z,26.28
2019-01-16T23:21:27.491Z,27.42
2019-01-16T23:22:02.686Z,25.90
2019-01-16T23:22:38.226Z,24.10
2019-01-16T23:23:13.617Z,23.82
2019-01-16T23:23:49.888Z,24.95
2019-01-16T23:24:24.421Z,24.48
2019-01-16T23:24:59.854Z,22.39
2019-01-16T23:25:35.041Z,20.68
2019-01-16T23:26:10.576Z,18.60
2019-01-16T23:26:45.645Z,16.70
2019-01-16T23:27:20.659Z,15.56
2019-01-16T23:27:55.955Z,16.51
2019-01-16T23:28:31.564Z,15.95
2019-01-16T23:29:06.849Z,14.14
2019-01-16T23:29:42.166Z,14.80
2019-01-16T23:30:17.458Z,13.95
2019-01-16T23:30:52.782Z,11.76
2019-01-16T23:31:28.196Z,12.62
2019-01-16T23:32:03.629Z,11.86
2019-01-16T23:32:38.912Z,11.00
2019-01-16T23:33:14.322Z,11.38
2019-01-16T23:33:49.837Z,10.25
2019-01-16T23:34:25.338Z,9.11
2019-01-16T23:35:00.927Z,7.50
2019-01-16T23:35:36.248Z,5.88
2019-01-16T23:36:11.866Z,5.22
2019-01-16T23:36:47.409Z,5.88
2019-01-16T23:37:22.497Z,6.45
2019-01-16T23:37:57.813Z,5.79
2019-01-16T23:38:33.226Z,5.60
2019-01-16T23:39:08.444Z,5.22
2019-01-16T23:39:43.955Z,5.50
2019-01-16T23:40:19.463Z,4.93
2019-01-16T23:40:55.080Z,4.36
2019-01-16T23:41:30.302Z,3.89
2019-01-16T23:42:05.703Z,4.36
2019-01-16T23:42:41.331Z,3.32
2019-01-16T23:43:16.745Z,1.70
2019-01-16T23:43:52.361Z,1.32
2019-01-16T23:44:27.874Z,1.61
2019-01-16T23:45:03.109Z,1.32
2019-01-16T23:45:38.491Z,1.04
2019-01-16T23:46:13.754Z,0.00
2019-01-16T23:46:49.040Z,0.00
2019-01-16T23:47:24.750Z,0.85
2019-01-16T23:47:59.802Z,1.23
2019-01-16T23:48:35.336Z,0.47
2019-01-16T23:49:10.629Z,0.00
2019-01-16T23:49:45.948Z,0.00
2019-01-16T23:50:21.344Z,0.00
2019-01-16T23:50:56.760Z,0.00
2019-01-16T23:51:32.396Z,0.00
2019-01-16T23:52:07.723Z,0.00
2019-01-16T23:52:43.011Z,0.00
2019-01-16T23:53:18.158Z,0.00
2019-01-16T23:53:56.299Z,0.00
2019-01-16T23:54:29.003Z,0.00
2019-01-16T23:55:04.180Z,0.00
2019-01-16T23:55:39.594Z,0.00
2019-01-16T23:56:35.008Z,0.00
2019-01-16T23:57:10.143Z,0.00
2019-01-16T23:57:45.579Z,0.00
2019-01-16T23:58:20.917Z,0.00
2019-01-16T23:58:56.600Z,0.00
2019-01-16T23:59:32.009Z,0.00
